sensor_id;sensor_type;location;lat;lon;timestamp;P1;durP1;ratioP1;P2;durP2;ratioP2
44204;SDS011;30163;42.698;23.344;2023-02-28T00:00:19;64.28;;;31.92;;
44204;SDS011;30163;42.698;23.344;2023-02-28T00:02:45;69.90;;;31.73;;
44204;SDS011;30163;42.698;23.344;2023-02-28T00:05:11;76.45;;;34.78;;
44204;SDS011;30163;42.698;23.344;2023-02-28T00:07:38;95.85;;;33.63;;
44204;SDS011;30163;42.698;23.344;2023-02-28T00:10:05;71.65;;;33.33;;
44204;SDS011;30163;42.698;23.344;2023-02-28T00:12:32;79.30;;;34.15;;
44204;SDS011;30163;42.698;23.344;2023-02-28T00:14:58;81.35;;;32.58;;
44204;SDS011;30163;42.698;23.344;2023-02-28T00:17:24;85.97;;;34.22;;
44204;SDS011;30163;42.698;23.344;2023-02-28T00:19:50;83.38;;;33.97;;
44204;SDS011;30163;42.698;23.344;2023-02-28T00:22:16;70.45;;;31.25;;
44204;SDS011;30163;42.698;23.344;2023-02-28T00:24:43;73.60;;;33.30;;
44204;SDS011;30163;42.698;23.344;2023-02-28T00:27:09;71.80;;;32.92;;
44204;SDS011;30163;42.698;23.344;2023-02-28T00:29:35;69.88;;;33.50;;
44204;SDS011;30163;42.698;23.344;2023-02-28T00:32:00;81.20;;;36.55;;
44204;SDS011;30163;42.698;23.344;2023-02-28T00:34:26;71.18;;;33.30;;
44204;SDS011;30163;42.698;23.344;2023-02-28T00:36:51;80.07;;;33.03;;
44204;SDS011;30163;42.698;23.344;2023-02-28T00:39:17;81.90;;;34.78;;
44204;SDS011;30163;42.698;23.344;2023-02-28T00:41:42;80.13;;;35.47;;
44204;SDS011;30163;42.698;23.344;2023-02-28T00:44:07;81.18;;;33.97;;
44204;SDS011;30163;42.698;23.344;2023-02-28T00:46:33;72.90;;;33.58;;
44204;SDS011;30163;42.698;23.344;2023-02-28T00:48:58;88.38;;;34.65;;
44204;SDS011;30163;42.698;23.344;2023-02-28T00:51:24;83.40;;;35.45;;
44204;SDS011;30163;42.698;23.344;2023-02-28T00:53:49;88.07;;;35.95;;
44204;SDS011;30163;42.698;23.344;2023-02-28T00:56:14;84.32;;;35.83;;
44204;SDS011;30163;42.698;23.344;2023-02-28T00:58:40;80.93;;;33.00;;
44204;SDS011;30163;42.698;23.344;2023-02-28T01:01:05;82.78;;;35.38;;
44204;SDS011;30163;42.698;23.344;2023-02-28T01:03:31;85.28;;;34.60;;
44204;SDS011;30163;42.698;23.344;2023-02-28T01:05:57;84.40;;;32.63;;
44204;SDS011;30163;42.698;23.344;2023-02-28T01:08:22;80.68;;;33.15;;
44204;SDS011;30163;42.698;23.344;2023-02-28T01:10:48;79.32;;;31.17;;
44204;SDS011;30163;42.698;23.344;2023-02-28T01:13:13;84.25;;;32.78;;
44204;SDS011;30163;42.698;23.344;2023-02-28T01:15:40;74.95;;;31.90;;
44204;SDS011;30163;42.698;23.344;2023-02-28T01:18:08;77.28;;;32.17;;
44204;SDS011;30163;42.698;23.344;2023-02-28T01:20:35;84.13;;;33.70;;
44204;SDS011;30163;42.698;23.344;2023-02-28T01:23:02;80.95;;;32.53;;
44204;SDS011;30163;42.698;23.344;2023-02-28T01:25:27;73.47;;;32.17;;
44204;SDS011;30163;42.698;23.344;2023-02-28T01:27:53;83.10;;;31.90;;
44204;SDS011;30163;42.698;23.344;2023-02-28T01:30:18;87.45;;;35.63;;
44204;SDS011;30163;42.698;23.344;2023-02-28T01:32:44;87.35;;;35.72;;
44204;SDS011;30163;42.698;23.344;2023-02-28T01:35:09;95.85;;;36.88;;
44204;SDS011;30163;42.698;23.344;2023-02-28T01:37:34;93.93;;;36.38;;
44204;SDS011;30163;42.698;23.344;2023-02-28T01:40:00;89.38;;;36.50;;
44204;SDS011;30163;42.698;23.344;2023-02-28T01:42:25;103.32;;;38.55;;
44204;SDS011;30163;42.698;23.344;2023-02-28T01:47:26;100.32;;;40.40;;
44204;SDS011;30163;42.698;23.344;2023-02-28T01:49:53;108.75;;;41.33;;
44204;SDS011;30163;42.698;23.344;2023-02-28T01:52:23;96.95;;;41.58;;
44204;SDS011;30163;42.698;23.344;2023-02-28T01:54:51;105.70;;;39.92;;
44204;SDS011;30163;42.698;23.344;2023-02-28T01:57:18;98.85;;;39.60;;
44204;SDS011;30163;42.698;23.344;2023-02-28T02:02:17;121.57;;;47.40;;
44204;SDS011;30163;42.698;23.344;2023-02-28T02:05:01;133.88;;;50.05;;
44204;SDS011;30163;42.698;23.344;2023-02-28T02:07:29;111.80;;;40.30;;
44204;SDS011;30163;42.698;23.344;2023-02-28T02:10:40;127.47;;;43.05;;
44204;SDS011;30163;42.698;23.344;2023-02-28T02:26:51;119.32;;;43.33;;
44204;SDS011;30163;42.698;23.344;2023-02-28T02:29:46;123.00;;;42.40;;
44204;SDS011;30163;42.698;23.344;2023-02-28T02:40:12;117.70;;;41.05;;
44204;SDS011;30163;42.698;23.344;2023-02-28T02:45:26;115.95;;;43.45;;
44204;SDS011;30163;42.698;23.344;2023-02-28T02:48:00;137.77;;;43.53;;
44204;SDS011;30163;42.698;23.344;2023-02-28T02:50:29;126.38;;;40.30;;
44204;SDS011;30163;42.698;23.344;2023-02-28T02:52:58;125.63;;;41.38;;
44204;SDS011;30163;42.698;23.344;2023-02-28T02:55:25;119.90;;;41.22;;
44204;SDS011;30163;42.698;23.344;2023-02-28T02:57:56;130.90;;;42.35;;
44204;SDS011;30163;42.698;23.344;2023-02-28T03:00:26;157.98;;;60.15;;
44204;SDS011;30163;42.698;23.344;2023-02-28T03:02:58;131.77;;;48.97;;
44204;SDS011;30163;42.698;23.344;2023-02-28T03:05:46;131.32;;;45.42;;
44204;SDS011;30163;42.698;23.344;2023-02-28T03:08:14;125.20;;;40.22;;
44204;SDS011;30163;42.698;23.344;2023-02-28T03:10:41;126.35;;;51.97;;
44204;SDS011;30163;42.698;23.344;2023-02-28T03:21:23;131.23;;;42.67;;
44204;SDS011;30163;42.698;23.344;2023-02-28T03:24:03;135.10;;;42.28;;
44204;SDS011;30163;42.698;23.344;2023-02-28T03:26:37;121.65;;;42.70;;
44204;SDS011;30163;42.698;23.344;2023-02-28T03:29:10;120.05;;;40.83;;
44204;SDS011;30163;42.698;23.344;2023-02-28T03:31:48;121.57;;;38.95;;
44204;SDS011;30163;42.698;23.344;2023-02-28T03:34:24;148.18;;;45.45;;
44204;SDS011;30163;42.698;23.344;2023-02-28T03:36:57;127.90;;;41.67;;
44204;SDS011;30163;42.698;23.344;2023-02-28T03:39:30;146.13;;;44.17;;
44204;SDS011;30163;42.698;23.344;2023-02-28T03:42:01;132.32;;;43.30;;
44204;SDS011;30163;42.698;23.344;2023-02-28T03:44:35;136.73;;;43.33;;
44204;SDS011;30163;42.698;23.344;2023-02-28T03:47:04;133.25;;;41.72;;
44204;SDS011;30163;42.698;23.344;2023-02-28T03:49:38;134.43;;;42.35;;
44204;SDS011;30163;42.698;23.344;2023-02-28T03:52:13;138.45;;;44.53;;
44204;SDS011;30163;42.698;23.344;2023-02-28T03:54:44;142.15;;;45.50;;
44204;SDS011;30163;42.698;23.344;2023-02-28T03:57:23;133.27;;;43.53;;
44204;SDS011;30163;42.698;23.344;2023-02-28T03:59:59;139.65;;;43.10;;
44204;SDS011;30163;42.698;23.344;2023-02-28T04:02:31;149.77;;;44.40;;
44204;SDS011;30163;42.698;23.344;2023-02-28T04:04:56;146.43;;;43.90;;
44204;SDS011;30163;42.698;23.344;2023-02-28T04:07:22;131.77;;;44.85;;
44204;SDS011;30163;42.698;23.344;2023-02-28T04:09:47;147.90;;;47.90;;
44204;SDS011;30163;42.698;23.344;2023-02-28T04:12:13;149.15;;;46.67;;
44204;SDS011;30163;42.698;23.344;2023-02-28T04:14:38;137.18;;;46.38;;
44204;SDS011;30163;42.698;23.344;2023-02-28T04:17:03;142.82;;;43.92;;
44204;SDS011;30163;42.698;23.344;2023-02-28T04:19:29;139.10;;;45.33;;
44204;SDS011;30163;42.698;23.344;2023-02-28T04:21:54;131.35;;;43.33;;
44204;SDS011;30163;42.698;23.344;2023-02-28T04:24:24;146.93;;;42.45;;
44204;SDS011;30163;42.698;23.344;2023-02-28T04:26:52;136.00;;;41.00;;
44204;SDS011;30163;42.698;23.344;2023-02-28T04:29:22;168.75;;;41.83;;
44204;SDS011;30163;42.698;23.344;2023-02-28T04:31:50;159.45;;;42.15;;
44204;SDS011;30163;42.698;23.344;2023-02-28T04:34:18;171.45;;;41.13;;
44204;SDS011;30163;42.698;23.344;2023-02-28T04:36:43;222.23;;;42.38;;
44204;SDS011;30163;42.698;23.344;2023-02-28T04:39:10;136.25;;;42.70;;
44204;SDS011;30163;42.698;23.344;2023-02-28T04:41:36;149.75;;;40.78;;
44204;SDS011;30163;42.698;23.344;2023-02-28T04:44:02;153.65;;;48.05;;
44204;SDS011;30163;42.698;23.344;2023-02-28T04:46:27;163.32;;;49.70;;
44204;SDS011;30163;42.698;23.344;2023-02-28T04:48:53;147.73;;;46.47;;
44204;SDS011;30163;42.698;23.344;2023-02-28T04:51:19;152.10;;;49.47;;
44204;SDS011;30163;42.698;23.344;2023-02-28T04:53:45;189.05;;;50.75;;
44204;SDS011;30163;42.698;23.344;2023-02-28T04:56:12;206.90;;;50.83;;
44204;SDS011;30163;42.698;23.344;2023-02-28T04:58:38;189.95;;;50.90;;
44204;SDS011;30163;42.698;23.344;2023-02-28T05:01:06;279.45;;;57.55;;
44204;SDS011;30163;42.698;23.344;2023-02-28T05:03:42;341.70;;;58.65;;
44204;SDS011;30163;42.698;23.344;2023-02-28T05:06:08;186.95;;;58.63;;
44204;SDS011;30163;42.698;23.344;2023-02-28T05:08:35;287.48;;;61.97;;
44204;SDS011;30163;42.698;23.344;2023-02-28T05:11:00;255.63;;;55.72;;
44204;SDS011;30163;42.698;23.344;2023-02-28T05:13:26;337.50;;;58.97;;
44204;SDS011;30163;42.698;23.344;2023-02-28T05:15:52;200.85;;;53.33;;
44204;SDS011;30163;42.698;23.344;2023-02-28T05:18:18;193.32;;;54.72;;
44204;SDS011;30163;42.698;23.344;2023-02-28T05:20:43;209.80;;;53.05;;
44204;SDS011;30163;42.698;23.344;2023-02-28T05:23:10;189.63;;;50.45;;
44204;SDS011;30163;42.698;23.344;2023-02-28T05:25:37;197.88;;;53.40;;
44204;SDS011;30163;42.698;23.344;2023-02-28T05:28:03;193.30;;;52.58;;
44204;SDS011;30163;42.698;23.344;2023-02-28T05:30:29;227.50;;;55.25;;
44204;SDS011;30163;42.698;23.344;2023-02-28T05:32:55;244.85;;;55.05;;
44204;SDS011;30163;42.698;23.344;2023-02-28T05:35:20;208.02;;;59.85;;
44204;SDS011;30163;42.698;23.344;2023-02-28T05:37:46;187.15;;;56.47;;
44204;SDS011;30163;42.698;23.344;2023-02-28T05:40:11;193.93;;;57.42;;
44204;SDS011;30163;42.698;23.344;2023-02-28T05:42:37;168.32;;;52.55;;
44204;SDS011;30163;42.698;23.344;2023-02-28T05:45:06;182.82;;;53.30;;
44204;SDS011;30163;42.698;23.344;2023-02-28T05:47:32;205.82;;;58.35;;
44204;SDS011;30163;42.698;23.344;2023-02-28T05:49:57;187.73;;;55.30;;
44204;SDS011;30163;42.698;23.344;2023-02-28T05:52:23;194.20;;;60.53;;
44204;SDS011;30163;42.698;23.344;2023-02-28T05:54:48;182.63;;;57.17;;
44204;SDS011;30163;42.698;23.344;2023-02-28T05:57:13;192.88;;;60.03;;
44204;SDS011;30163;42.698;23.344;2023-02-28T05:59:39;234.30;;;67.30;;
44204;SDS011;30163;42.698;23.344;2023-02-28T06:02:06;233.45;;;66.50;;
44204;SDS011;30163;42.698;23.344;2023-02-28T06:04:34;173.77;;;55.22;;
44204;SDS011;30163;42.698;23.344;2023-02-28T06:06:59;188.25;;;62.20;;
44204;SDS011;30163;42.698;23.344;2023-02-28T06:09:25;184.88;;;57.50;;
44204;SDS011;30163;42.698;23.344;2023-02-28T06:11:50;195.45;;;62.70;;
44204;SDS011;30163;42.698;23.344;2023-02-28T06:14:17;161.73;;;55.58;;
44204;SDS011;30163;42.698;23.344;2023-02-28T06:16:43;168.10;;;56.53;;
44204;SDS011;30163;42.698;23.344;2023-02-28T06:19:09;181.65;;;55.17;;
44204;SDS011;30163;42.698;23.344;2023-02-28T06:21:35;164.20;;;56.22;;
44204;SDS011;30163;42.698;23.344;2023-02-28T06:24:01;162.02;;;52.50;;
44204;SDS011;30163;42.698;23.344;2023-02-28T06:26:27;158.63;;;55.15;;
44204;SDS011;30163;42.698;23.344;2023-02-28T06:28:53;152.10;;;53.85;;
44204;SDS011;30163;42.698;23.344;2023-02-28T06:31:19;140.13;;;52.35;;
44204;SDS011;30163;42.698;23.344;2023-02-28T06:33:45;146.90;;;53.97;;
44204;SDS011;30163;42.698;23.344;2023-02-28T06:36:11;150.05;;;56.45;;
44204;SDS011;30163;42.698;23.344;2023-02-28T06:38:38;147.88;;;53.42;;
44204;SDS011;30163;42.698;23.344;2023-02-28T06:41:04;166.75;;;54.67;;
44204;SDS011;30163;42.698;23.344;2023-02-28T06:43:31;167.63;;;57.20;;
44204;SDS011;30163;42.698;23.344;2023-02-28T06:45:59;170.82;;;57.00;;
44204;SDS011;30163;42.698;23.344;2023-02-28T06:48:26;181.10;;;57.35;;
44204;SDS011;30163;42.698;23.344;2023-02-28T06:50:52;166.77;;;53.72;;
44204;SDS011;30163;42.698;23.344;2023-02-28T06:53:25;159.30;;;53.40;;
44204;SDS011;30163;42.698;23.344;2023-02-28T06:55:51;176.32;;;58.45;;
44204;SDS011;30163;42.698;23.344;2023-02-28T06:58:16;161.68;;;54.92;;
44204;SDS011;30163;42.698;23.344;2023-02-28T07:00:44;163.20;;;55.42;;
44204;SDS011;30163;42.698;23.344;2023-02-28T07:03:10;160.77;;;50.30;;
44204;SDS011;30163;42.698;23.344;2023-02-28T07:05:37;146.60;;;51.47;;
44204;SDS011;30163;42.698;23.344;2023-02-28T07:08:03;137.20;;;50.63;;
44204;SDS011;30163;42.698;23.344;2023-02-28T07:10:29;136.48;;;50.35;;
44204;SDS011;30163;42.698;23.344;2023-02-28T07:12:55;135.52;;;49.08;;
44204;SDS011;30163;42.698;23.344;2023-02-28T07:15:20;138.70;;;49.22;;
44204;SDS011;30163;42.698;23.344;2023-02-28T07:17:46;141.15;;;52.38;;
44204;SDS011;30163;42.698;23.344;2023-02-28T07:20:11;128.35;;;47.97;;
44204;SDS011;30163;42.698;23.344;2023-02-28T07:22:37;126.30;;;46.97;;
44204;SDS011;30163;42.698;23.344;2023-02-28T07:25:03;128.35;;;48.33;;
44204;SDS011;30163;42.698;23.344;2023-02-28T07:27:29;127.93;;;49.20;;
44204;SDS011;30163;42.698;23.344;2023-02-28T07:29:55;123.18;;;48.78;;
44204;SDS011;30163;42.698;23.344;2023-02-28T07:32:20;153.50;;;52.53;;
44204;SDS011;30163;42.698;23.344;2023-02-28T07:34:46;123.03;;;47.90;;
44204;SDS011;30163;42.698;23.344;2023-02-28T07:37:11;128.02;;;54.67;;
44204;SDS011;30163;42.698;23.344;2023-02-28T07:39:36;119.43;;;49.88;;
44204;SDS011;30163;42.698;23.344;2023-02-28T07:42:05;127.78;;;49.45;;
44204;SDS011;30163;42.698;23.344;2023-02-28T07:44:31;110.95;;;50.42;;
44204;SDS011;30163;42.698;23.344;2023-02-28T07:46:57;120.70;;;51.58;;
44204;SDS011;30163;42.698;23.344;2023-02-28T07:49:22;110.03;;;48.45;;
44204;SDS011;30163;42.698;23.344;2023-02-28T07:51:48;113.22;;;49.78;;
44204;SDS011;30163;42.698;23.344;2023-02-28T07:54:13;107.82;;;48.47;;
44204;SDS011;30163;42.698;23.344;2023-02-28T07:56:38;120.90;;;48.13;;
44204;SDS011;30163;42.698;23.344;2023-02-28T07:59:04;99.00;;;43.33;;
44204;SDS011;30163;42.698;23.344;2023-02-28T08:01:29;111.30;;;45.22;;
44204;SDS011;30163;42.698;23.344;2023-02-28T08:03:55;98.78;;;45.95;;
44204;SDS011;30163;42.698;23.344;2023-02-28T08:06:22;125.90;;;53.67;;
44204;SDS011;30163;42.698;23.344;2023-02-28T08:08:49;108.20;;;50.45;;
44204;SDS011;30163;42.698;23.344;2023-02-28T08:11:15;121.68;;;52.17;;
44204;SDS011;30163;42.698;23.344;2023-02-28T08:13:41;104.57;;;46.75;;
44204;SDS011;30163;42.698;23.344;2023-02-28T08:16:08;88.43;;;42.97;;
44204;SDS011;30163;42.698;23.344;2023-02-28T08:18:34;88.25;;;42.03;;
44204;SDS011;30163;42.698;23.344;2023-02-28T08:21:05;100.57;;;41.80;;
44204;SDS011;30163;42.698;23.344;2023-02-28T08:23:31;86.77;;;38.70;;
44204;SDS011;30163;42.698;23.344;2023-02-28T08:25:58;89.32;;;42.70;;
44204;SDS011;30163;42.698;23.344;2023-02-28T08:28:23;96.75;;;45.42;;
44204;SDS011;30163;42.698;23.344;2023-02-28T08:30:49;95.90;;;48.05;;
44204;SDS011;30163;42.698;23.344;2023-02-28T08:33:14;97.88;;;41.78;;
44204;SDS011;30163;42.698;23.344;2023-02-28T08:35:40;77.60;;;37.72;;
44204;SDS011;30163;42.698;23.344;2023-02-28T08:38:05;72.95;;;35.92;;
44204;SDS011;30163;42.698;23.344;2023-02-28T08:40:31;90.43;;;38.38;;
44204;SDS011;30163;42.698;23.344;2023-02-28T08:42:56;81.80;;;42.00;;
44204;SDS011;30163;42.698;23.344;2023-02-28T08:45:21;99.70;;;44.35;;
44204;SDS011;30163;42.698;23.344;2023-02-28T08:47:47;92.20;;;43.83;;
44204;SDS011;30163;42.698;23.344;2023-02-28T08:50:12;87.45;;;39.35;;
44204;SDS011;30163;42.698;23.344;2023-02-28T08:52:41;89.18;;;39.05;;
44204;SDS011;30163;42.698;23.344;2023-02-28T08:55:08;102.15;;;46.45;;
44204;SDS011;30163;42.698;23.344;2023-02-28T08:57:34;88.65;;;33.53;;
44204;SDS011;30163;42.698;23.344;2023-02-28T09:00:00;70.30;;;27.08;;
44204;SDS011;30163;42.698;23.344;2023-02-28T09:02:29;66.63;;;28.83;;
44204;SDS011;30163;42.698;23.344;2023-02-28T09:04:55;63.17;;;26.15;;
44204;SDS011;30163;42.698;23.344;2023-02-28T09:07:20;55.15;;;23.33;;
44204;SDS011;30163;42.698;23.344;2023-02-28T09:09:46;83.55;;;26.35;;
44204;SDS011;30163;42.698;23.344;2023-02-28T09:12:24;70.95;;;25.23;;
44204;SDS011;30163;42.698;23.344;2023-02-28T09:14:50;63.58;;;25.25;;
44204;SDS011;30163;42.698;23.344;2023-02-28T09:17:16;60.92;;;23.27;;
44204;SDS011;30163;42.698;23.344;2023-02-28T09:19:42;52.53;;;22.65;;
44204;SDS011;30163;42.698;23.344;2023-02-28T09:22:08;59.88;;;22.77;;
44204;SDS011;30163;42.698;23.344;2023-02-28T09:24:35;65.32;;;22.73;;
44204;SDS011;30163;42.698;23.344;2023-02-28T09:27:02;48.35;;;21.83;;
44204;SDS011;30163;42.698;23.344;2023-02-28T09:29:28;62.53;;;23.17;;
44204;SDS011;30163;42.698;23.344;2023-02-28T09:31:54;53.97;;;23.92;;
44204;SDS011;30163;42.698;23.344;2023-02-28T09:34:19;60.63;;;23.95;;
44204;SDS011;30163;42.698;23.344;2023-02-28T09:36:45;64.15;;;23.83;;
44204;SDS011;30163;42.698;23.344;2023-02-28T09:39:11;57.60;;;23.98;;
44204;SDS011;30163;42.698;23.344;2023-02-28T09:41:41;61.65;;;22.73;;
44204;SDS011;30163;42.698;23.344;2023-02-28T09:44:37;55.95;;;22.67;;
44204;SDS011;30163;42.698;23.344;2023-02-28T09:50:15;55.78;;;23.38;;
44204;SDS011;30163;42.698;23.344;2023-02-28T09:52:42;44.80;;;23.17;;
44204;SDS011;30163;42.698;23.344;2023-02-28T09:55:19;59.47;;;22.83;;
44204;SDS011;30163;42.698;23.344;2023-02-28T09:57:49;53.83;;;22.15;;
44204;SDS011;30163;42.698;23.344;2023-02-28T10:00:20;52.05;;;21.02;;
44204;SDS011;30163;42.698;23.344;2023-02-28T10:05:38;53.55;;;21.50;;
44204;SDS011;30163;42.698;23.344;2023-02-28T10:10:56;65.93;;;18.45;;
44204;SDS011;30163;42.698;23.344;2023-02-28T10:16:01;51.33;;;19.17;;
44204;SDS011;30163;42.698;23.344;2023-02-28T10:21:24;61.08;;;18.90;;
44204;SDS011;30163;42.698;23.344;2023-02-28T10:23:53;44.58;;;16.88;;
44204;SDS011;30163;42.698;23.344;2023-02-28T10:26:24;46.20;;;16.23;;
44204;SDS011;30163;42.698;23.344;2023-02-28T10:28:51;53.08;;;17.08;;
44204;SDS011;30163;42.698;23.344;2023-02-28T10:31:18;49.50;;;15.27;;
44204;SDS011;30163;42.698;23.344;2023-02-28T10:33:45;57.13;;;17.95;;
44204;SDS011;30163;42.698;23.344;2023-02-28T10:36:18;43.67;;;16.52;;
44204;SDS011;30163;42.698;23.344;2023-02-28T10:38:45;52.15;;;14.98;;
44204;SDS011;30163;42.698;23.344;2023-02-28T10:41:15;34.15;;;16.25;;
44204;SDS011;30163;42.698;23.344;2023-02-28T10:43:42;43.22;;;16.52;;
44204;SDS011;30163;42.698;23.344;2023-02-28T10:48:42;40.28;;;16.70;;
44204;SDS011;30163;42.698;23.344;2023-02-28T10:51:10;46.15;;;17.08;;
44204;SDS011;30163;42.698;23.344;2023-02-28T10:58:50;40.60;;;17.02;;
44204;SDS011;30163;42.698;23.344;2023-02-28T11:09:34;48.08;;;20.10;;
44204;SDS011;30163;42.698;23.344;2023-02-28T11:12:01;42.28;;;19.52;;
44204;SDS011;30163;42.698;23.344;2023-02-28T11:14:28;49.50;;;19.88;;
44204;SDS011;30163;42.698;23.344;2023-02-28T11:16:58;50.25;;;18.48;;
44204;SDS011;30163;42.698;23.344;2023-02-28T11:19:43;55.40;;;18.08;;
44204;SDS011;30163;42.698;23.344;2023-02-28T11:22:10;50.78;;;18.58;;
44204;SDS011;30163;42.698;23.344;2023-02-28T11:24:46;56.55;;;18.27;;
44204;SDS011;30163;42.698;23.344;2023-02-28T11:29:59;50.58;;;18.52;;
44204;SDS011;30163;42.698;23.344;2023-02-28T11:32:26;53.95;;;16.30;;
44204;SDS011;30163;42.698;23.344;2023-02-28T11:37:34;42.97;;;18.45;;
44204;SDS011;30163;42.698;23.344;2023-02-28T11:40:00;48.83;;;18.20;;
44204;SDS011;30163;42.698;23.344;2023-02-28T11:47:47;48.42;;;18.23;;
44204;SDS011;30163;42.698;23.344;2023-02-28T11:51:10;64.78;;;19.27;;
44204;SDS011;30163;42.698;23.344;2023-02-28T12:12:38;46.72;;;16.35;;
44204;SDS011;30163;42.698;23.344;2023-02-28T12:23:19;56.10;;;17.00;;
44204;SDS011;30163;42.698;23.344;2023-02-28T12:28:48;39.25;;;16.98;;
44204;SDS011;30163;42.698;23.344;2023-02-28T12:31:26;46.60;;;16.65;;
44204;SDS011;30163;42.698;23.344;2023-02-28T12:36:41;49.83;;;16.75;;
44204;SDS011;30163;42.698;23.344;2023-02-28T12:41:46;35.65;;;15.23;;
44204;SDS011;30163;42.698;23.344;2023-02-28T12:44:26;45.25;;;15.95;;
44204;SDS011;30163;42.698;23.344;2023-02-28T12:46:58;50.80;;;17.60;;
44204;SDS011;30163;42.698;23.344;2023-02-28T12:49:27;51.92;;;15.32;;
44204;SDS011;30163;42.698;23.344;2023-02-28T12:51:59;46.92;;;15.20;;
44204;SDS011;30163;42.698;23.344;2023-02-28T12:57:00;59.35;;;14.82;;
44204;SDS011;30163;42.698;23.344;2023-02-28T12:59:39;49.53;;;16.10;;
44204;SDS011;30163;42.698;23.344;2023-02-28T13:02:22;52.85;;;16.27;;
44204;SDS011;30163;42.698;23.344;2023-02-28T13:04:55;44.60;;;16.35;;
44204;SDS011;30163;42.698;23.344;2023-02-28T13:07:34;49.92;;;15.75;;
44204;SDS011;30163;42.698;23.344;2023-02-28T13:10:04;54.30;;;17.80;;
44204;SDS011;30163;42.698;23.344;2023-02-28T13:12:34;38.05;;;15.80;;
44204;SDS011;30163;42.698;23.344;2023-02-28T13:15:05;58.28;;;19.48;;
44204;SDS011;30163;42.698;23.344;2023-02-28T13:17:52;53.13;;;16.70;;
44204;SDS011;30163;42.698;23.344;2023-02-28T13:20:20;64.97;;;16.98;;
44204;SDS011;30163;42.698;23.344;2023-02-28T13:22:53;41.63;;;16.80;;
44204;SDS011;30163;42.698;23.344;2023-02-28T13:28:11;58.05;;;16.83;;
44204;SDS011;30163;42.698;23.344;2023-02-28T13:33:22;47.15;;;18.27;;
44204;SDS011;30163;42.698;23.344;2023-02-28T13:44:12;37.95;;;15.88;;
44204;SDS011;30163;42.698;23.344;2023-02-28T13:51:48;40.88;;;15.98;;
44204;SDS011;30163;42.698;23.344;2023-02-28T13:59:50;36.42;;;15.48;;
44204;SDS011;30163;42.698;23.344;2023-02-28T14:05:44;40.83;;;14.77;;
44204;SDS011;30163;42.698;23.344;2023-02-28T14:08:17;40.88;;;15.23;;
44204;SDS011;30163;42.698;23.344;2023-02-28T14:10:49;35.78;;;14.05;;
44204;SDS011;30163;42.698;23.344;2023-02-28T14:16:10;37.15;;;15.18;;
44204;SDS011;30163;42.698;23.344;2023-02-28T14:18:37;57.10;;;16.42;;
44204;SDS011;30163;42.698;23.344;2023-02-28T14:21:11;43.22;;;15.23;;
44204;SDS011;30163;42.698;23.344;2023-02-28T14:26:13;47.08;;;16.90;;
44204;SDS011;30163;42.698;23.344;2023-02-28T14:37:03;42.28;;;17.17;;
44204;SDS011;30163;42.698;23.344;2023-02-28T14:39:28;47.05;;;16.42;;
44204;SDS011;30163;42.698;23.344;2023-02-28T14:41:58;52.20;;;17.23;;
44204;SDS011;30163;42.698;23.344;2023-02-28T14:44:30;46.65;;;17.13;;
44204;SDS011;30163;42.698;23.344;2023-02-28T14:46:57;46.22;;;15.90;;
44204;SDS011;30163;42.698;23.344;2023-02-28T14:52:03;38.95;;;14.90;;
44204;SDS011;30163;42.698;23.344;2023-02-28T14:54:38;49.47;;;15.43;;
44204;SDS011;30163;42.698;23.344;2023-02-28T14:57:04;45.85;;;15.40;;
44204;SDS011;30163;42.698;23.344;2023-02-28T14:59:34;43.95;;;16.75;;
44204;SDS011;30163;42.698;23.344;2023-02-28T15:02:16;34.13;;;14.68;;
44204;SDS011;30163;42.698;23.344;2023-02-28T15:04:51;52.90;;;18.65;;
44204;SDS011;30163;42.698;23.344;2023-02-28T15:07:35;74.22;;;15.52;;
44204;SDS011;30163;42.698;23.344;2023-02-28T15:12:44;45.92;;;15.70;;
44204;SDS011;30163;42.698;23.344;2023-02-28T15:15:15;45.33;;;17.30;;
44204;SDS011;30163;42.698;23.344;2023-02-28T15:17:42;49.25;;;18.17;;
44204;SDS011;30163;42.698;23.344;2023-02-28T15:20:14;42.45;;;16.20;;
44204;SDS011;30163;42.698;23.344;2023-02-28T15:22:41;29.75;;;13.65;;
44204;SDS011;30163;42.698;23.344;2023-02-28T15:25:06;36.40;;;15.73;;
44204;SDS011;30163;42.698;23.344;2023-02-28T15:27:34;45.05;;;14.98;;
44204;SDS011;30163;42.698;23.344;2023-02-28T15:30:06;35.83;;;16.48;;
44204;SDS011;30163;42.698;23.344;2023-02-28T15:32:37;34.17;;;15.07;;
44204;SDS011;30163;42.698;23.344;2023-02-28T15:37:57;39.28;;;20.05;;
44204;SDS011;30163;42.698;23.344;2023-02-28T15:45:46;34.25;;;16.27;;
44204;SDS011;30163;42.698;23.344;2023-02-28T15:50:44;36.05;;;16.75;;
44204;SDS011;30163;42.698;23.344;2023-02-28T15:53:13;37.33;;;16.95;;
44204;SDS011;30163;42.698;23.344;2023-02-28T15:55:42;40.42;;;16.23;;
44204;SDS011;30163;42.698;23.344;2023-02-28T15:58:09;36.10;;;15.40;;
44204;SDS011;30163;42.698;23.344;2023-02-28T16:00:38;33.75;;;15.45;;
44204;SDS011;30163;42.698;23.344;2023-02-28T16:03:22;37.45;;;17.48;;
44204;SDS011;30163;42.698;23.344;2023-02-28T16:08:55;38.80;;;16.88;;
44204;SDS011;30163;42.698;23.344;2023-02-28T16:11:20;27.40;;;14.55;;
44204;SDS011;30163;42.698;23.344;2023-02-28T16:13:46;35.60;;;16.25;;
44204;SDS011;30163;42.698;23.344;2023-02-28T16:16:19;24.33;;;13.80;;
44204;SDS011;30163;42.698;23.344;2023-02-28T16:18:46;42.67;;;15.30;;
44204;SDS011;30163;42.698;23.344;2023-02-28T16:21:12;30.80;;;14.48;;
44204;SDS011;30163;42.698;23.344;2023-02-28T16:23:37;27.38;;;12.77;;
44204;SDS011;30163;42.698;23.344;2023-02-28T16:26:03;36.20;;;13.35;;
44204;SDS011;30163;42.698;23.344;2023-02-28T16:28:30;34.53;;;14.70;;
44204;SDS011;30163;42.698;23.344;2023-02-28T16:31:02;37.75;;;15.13;;
44204;SDS011;30163;42.698;23.344;2023-02-28T16:33:29;40.88;;;15.43;;
44204;SDS011;30163;42.698;23.344;2023-02-28T16:35:55;31.73;;;14.73;;
44204;SDS011;30163;42.698;23.344;2023-02-28T16:38:20;38.25;;;16.27;;
44204;SDS011;30163;42.698;23.344;2023-02-28T16:40:48;38.63;;;14.65;;
44204;SDS011;30163;42.698;23.344;2023-02-28T16:43:18;33.80;;;14.18;;
44204;SDS011;30163;42.698;23.344;2023-02-28T16:45:46;28.98;;;12.38;;
44204;SDS011;30163;42.698;23.344;2023-02-28T16:48:12;33.33;;;12.77;;
44204;SDS011;30163;42.698;23.344;2023-02-28T16:50:39;35.10;;;13.25;;
44204;SDS011;30163;42.698;23.344;2023-02-28T16:53:04;30.95;;;12.40;;
44204;SDS011;30163;42.698;23.344;2023-02-28T16:55:30;25.13;;;11.63;;
44204;SDS011;30163;42.698;23.344;2023-02-28T16:57:56;41.00;;;12.68;;
44204;SDS011;30163;42.698;23.344;2023-02-28T17:00:23;35.63;;;13.52;;
44204;SDS011;30163;42.698;23.344;2023-02-28T17:02:49;24.85;;;11.75;;
44204;SDS011;30163;42.698;23.344;2023-02-28T17:05:14;30.27;;;12.18;;
44204;SDS011;30163;42.698;23.344;2023-02-28T17:07:41;32.13;;;12.45;;